KADU

Audubon County Airport

Audubon, Iowa, USA
METAR KADU 170855Z AUTO 03011G23KT 10SM OVC006 M01/M02 A3012 RMK AO2
Observed Flight Rules
Nov-17 @ 08:55 UTC (9 minutes ago) Instrument Flight Rules
Wind Visibility Clouds
30° at 11 knots
 Gusting to 23 knots
10 miles
  • Overcast at 600' AGL
Temperatures Readings
Current -1°C / 30°F
Dewpoint -2°C / 28°F
Humidity 93%
Altimeter 30.12" Hg
Pressure 1020 hPa
Elevation 392
METAR KADU 170855Z AUTO 03011G23KT 10SM OVC006 M01/M02 A3012 RMK AO2
Observed Flight Rules
Nov-17 @ 08:55 UTC
(9 minutes ago)
IFR
Wind Visibility
30° at 11 knots
 Gusting to 23 knots
10 miles
Clouds
  • Overcast at 600' AGL
Temperature Dewpoint
-1°C / 30°F -2°C / 28°F
Humidity Altimeter Pressure
93% 30.12" Hg 1020 hPa